Algodones, NM

10:17 PM MDT on August 30, 2014 (GMT -0600)
On The Loop | Change Station
CLOSE
Current Station
Personal Weather Station
Location: Placitas, NM
Elevation: 5260 ft
Nearby Weather Stations

Elev 5260 ft 35.34 °N, 106.50 °W | Updated 14 minutes ago

Partly Cloudy
Partly Cloudy
83.1 °F
Feels Like 81 °F
N
2.0
Wind Variable Wind from South
Gusts 2.0 mph

Today
High -- | Low -- °F
--% Chance of Precip.
Yesterday
High -- | Low -- °F
Precip. -- in
6:36 AM 7:35 PM
Waxing Crescent, 27% visible
Pressure 30.08 in
Visibility 10.0 miles
Clouds Clear
Heat Index 81 °F
Dew Point 44 °F
Humidity 25%
Rainfall 0.00 in
Snow Depth Not available.
UV 0.0 out of 12
Pollen 8.60 out of 12
Air Quality Not available.
Flu Activity Not available.
METAR KAEG 310349Z 18012KT 10SM SKC 23/06 A3008

More Conditions Fewer Conditions

Pressure 30.08 in
Visibility 10.0 miles
Clouds Clear
Heat Index 81 °F
Dew Point 44 °F
Humidity 25%
Rainfall 0.00 in
Snow Depth Not available.
UV 0.0 out of 12
Pollen 8.60 out of 12
Air Quality Not available.
Flu Activity Not available.
METAR KAEG 310349Z 18012KT 10SM SKC 23/06 A3008

More Conditions Fewer Conditions

10-Day Weather Forecast

Almanac

Astronomy

Aug. 30, 2014 Rise Set
Actual Time 6:36 AM MDT 7:35 PM MDT
Civil Twilight 6:10 AM MDT 8:01 PM MDT
Nautical Twilight 5:39 AM MDT 8:32 PM MDT
Astronomical Twilight 5:07 AM MDT 9:04 PM MDT
Moon 11:15 AM MDT (8/30) 10:23 PM MDT (8/30)
Length of Visible Light 13h 50m
Length of Day
12h 58m
Tomorrow will be 2m 7s shorter.
Waxing Crescent, 27% of the Moon is Illuminated
Aug 31
Waxing Crescent
Sep 2
First Quarter
Sep 8
Full
Sep 15
Last Quarter
Sep 24
New

Today's Extremes

State Highs State Lows

Community

WunderPhotos

Upload Photos

1,748,779 photos uploaded!

Nearby

Snow Depth

Station Depth Elevation
Quemazon 1 in 9500 ft
Santa Fe 0 in 11445 ft
Wesner Springs 2 in 11120 ft
Gallegos Peak 0 in 9800 ft
Bateman 0 in 9300 ft

Earthquake Activity

City Distance Mag. Time & Date
No recent earthquake activity has been reported nearby.
Minimum magnitude displayed is 2.5.

Coastal Water Temperatures

Place Temperature
No Stations Reporting

Nearby Weather Stations